This is the latest recevied weather packets stored in our database for station/object DL9RAN-11. If no packets are shown the sender has not sent any weather packets the latest 10 day(s).
| Time | Temp. | Humidity | Pressure | Rain* | Wind** | Luminosity | Snow |
|---|---|---|---|---|---|---|---|
| 1788586686 | 16.11° C | 75% | 1023.2 hPa | - | - | - | - |
| 1788586386 | 16.11° C | 73% | 1023.2 hPa | - | - | - | - |
| 1788586085 | 16.11° C | 73% | 1023.1 hPa | - | - | - | - |
| 1788585785 | 16.67° C | 72% | 1023.3 hPa | - | - | - | - |
| 1788585138 | 16.67° C | 71% | 1023.3 hPa | - | - | - | - |
| 1788584702 | 16.67° C | 71% | 1023.2 hPa | - | - | - | - |
| 1788584401 | 16.67° C | 71% | 1023.2 hPa | - | - | - | - |
| 1788583229 | 17.22° C | 68% | 1023.1 hPa | - | - | - | - |
| 1788580333 | 18.89° C | 62% | 1021.6 hPa | - | - | - | - |
| 1788578887 | 20° C | 57% | 1021.6 hPa | - | - | - | - |
| 1788578447 | 20° C | 58% | 1021.6 hPa | - | - | - | - |
| 1788578146 | 20.56° C | 60% | 1021.3 hPa | - | - | - | - |
| 1788577502 | 20.56° C | 60% | 1021.3 hPa | - | - | - | - |
| 1788577063 | 20.56° C | 61% | 1021.3 hPa | - | - | - | - |
| 1788576762 | 20.56° C | 61% | 1021 hPa | - | - | - | - |
| 1788576392 | 20.56° C | 63% | 1020.6 hPa | - | - | - | - |
| 1788575208 | 21.11° C | 64% | 1020.2 hPa | - | - | - | - |
| 1788574371 | 21.11° C | 64% | 1020.2 hPa | - | - | - | - |
| 1788574071 | 21.11° C | 64% | 1020.1 hPa | - | - | - | - |
| 1788573770 | 21.67° C | 64% | 1020.1 hPa | - | - | - | - |
| 1788573331 | 21.67° C | 64% | 1019.9 hPa | - | - | - | - |
| 1788573030 | 21.67° C | 63% | 1020 hPa | - | - | - | - |
| 1788572328 | 22.22° C | 63% | 1019.9 hPa | - | - | - | - |
| 1788571211 | 22.78° C | 63% | 1019.5 hPa | - | - | - | - |
| 1788570910 | 22.78° C | 62% | 1018.8 hPa | - | - | - | - |
* Rain since midnight (hover to see other rain measurements)
** Current wind speed in m/s (hover to see current wind gust speed)